Time;durP1;ratioP1;P1;durP2;ratioP2;P2;SDS_P1;SDS_P2;PMS_P1;PMS_P2;Temp;Humidity;BMP_temperature;BMP_pressure;BME280_temperature;BME280_humidity;BME280_pressure;Samples;Min_cycle;Max_cycle;Signal;HPM_P1;HPM_P2
2022/02/08 00:01:11;;;;;;;8.68;2.83;;;;;;;18.81;43.56;102588.38;5013260;28;20120;-64
2022/02/08 00:03:39;;;;;;;12.82;3.13;;;;;;;18.83;43.26;102591.78;5012993;28;20022;-63
2022/02/08 00:08:44;;;;;;;9.95;2.97;;;;;;;18.78;43.79;102593.81;5013631;28;20034;-64
2022/02/08 00:11:10;;;;;;;11.45;3.00;;;;;;;18.74;43.99;102584.38;5012516;28;20371;-64
2022/02/08 00:13:39;;;;;;;9.27;2.72;;;;;;;18.73;43.78;102595.88;5013439;28;20436;-65
2022/02/08 00:16:04;;;;;;;8.25;2.78;;;;;;;18.70;43.71;102588.13;5013612;28;20053;-63
2022/02/08 00:18:29;;;;;;;10.57;2.80;;;;;;;18.69;43.94;102584.63;5012414;28;20034;-63
2022/02/08 00:20:55;;;;;;;11.35;3.08;;;;;;;18.66;43.99;102579.53;5013349;28;20490;-63
2022/02/08 00:23:20;;;;;;;11.40;3.03;;;;;;;18.64;43.89;102566.41;5012966;28;20112;-63
2022/02/08 00:25:45;;;;;;;12.15;3.10;;;;;;;18.63;43.93;102570.00;5012618;28;20393;-64
2022/02/08 00:28:10;;;;;;;7.35;2.70;;;;;;;18.61;44.32;102563.94;5012884;28;20080;-63
2022/02/08 00:30:36;;;;;;;9.77;3.33;;;;;;;18.58;44.24;102564.13;5013252;28;20022;-63
2022/02/08 00:33:05;;;;;;;10.00;3.08;;;;;;;18.56;44.42;102571.25;5012596;28;20021;-63
2022/02/08 00:35:30;;;;;;;10.95;3.15;;;;;;;18.57;44.44;102561.56;5012685;28;20034;-64
2022/02/08 00:37:58;;;;;;;10.23;3.10;;;;;;;18.55;44.25;102560.78;5013229;28;20384;-63
2022/02/08 00:40:26;;;;;;;10.38;2.95;;;;;;;18.52;44.40;102559.19;5011736;28;20117;-64
2022/02/08 00:42:51;;;;;;;9.80;2.72;;;;;;;18.51;44.53;102551.34;5013028;28;20398;-64
2022/02/08 00:47:47;;;;;;;12.97;3.40;;;;;;;18.48;44.75;102557.63;5012299;28;20275;-63
2022/02/08 00:50:12;;;;;;;11.02;3.30;;;;;;;18.46;44.71;102549.78;5012633;28;20670;-63
2022/02/08 00:52:39;;;;;;;9.57;2.77;;;;;;;18.44;44.97;102559.59;5012358;28;20470;-63
2022/02/08 00:55:09;;;;;;;11.07;3.20;;;;;;;18.43;45.01;102555.25;5012755;28;20321;-63
2022/02/08 00:57:35;;;;;;;10.80;3.13;;;;;;;18.41;44.89;102556.28;5012918;28;20083;-62
2022/02/08 01:00:00;;;;;;;11.00;3.38;;;;;;;18.40;45.07;102546.66;5012229;28;20030;-63
2022/02/08 01:02:26;;;;;;;11.75;2.95;;;;;;;18.39;45.09;102558.13;5012575;28;20030;-63
2022/02/08 01:04:53;;;;;;;11.32;3.25;;;;;;;18.37;44.97;102554.75;5012712;28;20571;-62
2022/02/08 01:07:19;;;;;;;8.43;2.97;;;;;;;18.35;45.28;102552.19;5011655;28;20136;-62
2022/02/08 01:12:14;;;;;;;8.60;2.90;;;;;;;18.31;45.23;102548.03;5012311;28;20373;-63
2022/02/08 01:14:42;;;;;;;10.90;2.80;;;;;;;18.31;45.47;102559.44;5011964;28;20100;-64
2022/02/08 01:17:10;;;;;;;11.05;3.00;;;;;;;18.28;45.14;102554.31;5012400;28;20022;-63
2022/02/08 01:19:38;;;;;;;10.20;3.00;;;;;;;18.27;45.50;102551.75;5012567;28;20034;-62
2022/02/08 01:22:03;;;;;;;9.00;3.35;;;;;;;18.27;45.74;102546.47;5011865;28;20097;-63
2022/02/08 01:24:31;;;;;;;11.07;3.00;;;;;;;18.25;45.38;102549.22;5012096;28;20422;-63
2022/02/08 01:27:04;;;;;;;10.88;3.05;;;;;;;18.25;45.45;102556.28;5012672;28;20088;-62
2022/02/08 01:35:27;;;;;;;10.45;2.90;;;;;;;18.20;45.58;102558.28;5018688;28;19917;-62
2022/02/08 01:38:00;;;;;;;13.25;3.50;;;;;;;18.19;45.86;102556.63;5012556;28;20127;-63
2022/02/08 01:40:46;;;;;;;9.20;3.15;;;;;;;18.17;45.59;102559.34;5011976;28;20030;-63
2022/02/08 01:46:31;;;;;;;9.48;2.90;;;;;;;18.13;45.88;102563.06;5011012;28;20046;-63
2022/02/08 01:49:12;;;;;;;11.68;3.08;;;;;;;18.12;46.03;102556.09;5015116;28;20038;-63
2022/02/08 01:51:37;;;;;;;9.95;3.10;;;;;;;18.10;46.22;102556.19;5015974;28;20406;-63
2022/02/08 01:54:03;;;;;;;9.27;2.80;;;;;;;18.10;46.32;102566.75;5016368;28;20025;-64
2022/02/08 01:56:28;;;;;;;8.25;2.40;;;;;;;18.10;46.05;102565.88;5015137;28;20042;-63
2022/02/08 01:58:54;;;;;;;10.93;2.67;;;;;;;18.08;46.01;102565.94;5016186;28;20448;-63
2022/02/08 02:01:19;;;;;;;10.90;2.97;;;;;;;18.08;46.16;102567.75;5015624;28;20434;-62
2022/02/08 02:03:44;;;;;;;9.68;2.50;;;;;;;18.05;46.40;102565.28;5015274;28;20022;-63
2022/02/08 02:06:10;;;;;;;12.93;2.75;;;;;;;18.05;46.33;102566.09;5015555;28;20104;-63
2022/02/08 02:08:36;;;;;;;11.00;2.80;;;;;;;18.04;46.52;102563.56;5015929;28;20049;-63
2022/02/08 02:11:09;;;;;;;11.70;3.47;;;;;;;18.04;46.19;102569.72;5015094;28;20056;-63
2022/02/08 02:13:49;;;;;;;11.00;3.28;;;;;;;18.03;46.17;102561.88;5015675;28;20113;-64
2022/02/08 02:16:23;;;;;;;12.70;3.20;;;;;;;18.02;46.58;102568.91;5015467;28;20037;-64
2022/02/08 02:18:48;;;;;;;11.07;2.75;;;;;;;18.00;46.44;102562.88;5015225;28;20048;-64
2022/02/08 02:21:16;;;;;;;10.25;2.65;;;;;;;18.02;46.13;102558.34;5015294;28;20045;-64
2022/02/08 02:23:49;;;;;;;12.88;3.00;;;;;;;18.04;46.51;102556.50;5015557;28;20026;-64
2022/02/08 02:26:15;;;;;;;9.07;2.60;;;;;;;18.05;46.48;102552.06;5014301;28;20388;-63
2022/02/08 02:28:41;;;;;;;10.38;3.03;;;;;;;18.09;46.34;102548.34;5015311;28;20036;-63
2022/02/08 02:31:09;;;;;;;9.40;2.90;;;;;;;18.11;46.10;102555.22;5014676;28;20378;-63
2022/02/08 02:33:34;;;;;;;9.73;2.63;;;;;;;18.14;46.23;102554.22;5015444;28;20030;-64
2022/02/08 02:36:03;;;;;;;11.48;3.10;;;;;;;18.16;46.10;102552.34;5015388;28;20045;-64
2022/02/08 02:38:31;;;;;;;10.57;2.70;;;;;;;18.17;45.96;102553.22;5014297;28;20041;-64
2022/02/08 02:40:56;;;;;;;7.75;2.70;;;;;;;18.19;46.33;102559.25;5015055;28;20489;-63
2022/02/08 02:43:21;;;;;;;9.30;2.90;;;;;;;18.19;46.11;102554.81;5014792;28;20037;-64
2022/02/08 02:45:47;;;;;;;9.43;2.60;;;;;;;18.20;46.03;102547.75;5014411;28;20074;-63
2022/02/08 02:48:14;;;;;;;8.93;2.42;;;;;;;18.21;46.27;102552.94;5014965;28;20033;-63
2022/02/08 02:50:40;;;;;;;8.93;2.60;;;;;;;18.22;46.16;102556.44;5015407;28;20034;-64
2022/02/08 02:53:06;;;;;;;10.48;2.90;;;;;;;18.22;46.22;102551.16;5014348;28;20080;-63
2022/02/08 02:55:40;;;;;;;9.85;2.75;;;;;;;18.22;46.13;102551.16;5014775;28;20022;-63
2022/02/08 02:58:07;;;;;;;;;;;;;;;18.21;45.99;102550.28;5015311;28;20026;-63
2022/02/08 03:00:43;;;;;;;9.82;2.78;;;;;;;18.23;45.90;102542.31;5013858;28;20361;-63
2022/02/08 03:17:33;;;;;;;9.10;2.05;;;;;;;18.22;46.10;102552.00;5014944;28;20101;-64
2022/02/08 03:19:02;;;;;;;11.77;2.70;;;;;;;18.21;46.61;102552.09;5014962;28;20074;-63
2022/02/08 03:21:30;;;;;;;12.25;3.00;;;;;;;18.22;46.72;102556.44;5013900;28;20046;-63
2022/02/08 03:23:55;;;;;;;8.98;2.60;;;;;;;18.23;46.85;102555.50;5015121;28;20496;-63
2022/02/08 03:26:20;;;;;;;7.63;2.73;;;;;;;18.24;46.79;102549.28;5015014;28;20029;-64
2022/02/08 03:28:46;;;;;;;11.20;2.55;;;;;;;18.23;46.49;102564.28;5014353;28;20026;-63
2022/02/08 03:31:11;;;;;;;11.80;2.90;;;;;;;18.25;46.83;102562.41;5014074;28;20465;-63
2022/02/08 03:33:37;;;;;;;8.10;2.20;;;;;;;18.27;46.75;102557.03;5014129;28;20647;-63
2022/02/08 03:36:02;;;;;;;11.98;2.70;;;;;;;18.27;46.78;102546.47;5013607;28;20037;-63
2022/02/08 03:38:41;;;;;;;8.77;3.10;;;;;;;18.26;46.54;102550.91;5014029;28;20030;-63
2022/02/08 03:41:08;;;;;;;9.95;2.13;;;;;;;18.28;46.53;102551.69;5013968;28;20080;-63
2022/02/08 03:43:37;;;;;;;8.85;2.72;;;;;;;18.28;46.26;102559.59;5013262;28;20038;-63
2022/02/08 03:46:06;;;;;;;8.45;2.05;;;;;;;18.27;46.44;102563.16;5013862;28;20096;-62
2022/02/08 03:48:34;;;;;;;10.25;2.45;;;;;;;18.25;46.32;102551.84;5012936;28;20501;-64
2022/02/08 03:51:23;;;;;;;10.20;2.80;;;;;;;18.27;46.28;102564.97;5014193;28;20034;-64
2022/02/08 03:53:48;;;;;;;9.38;1.90;;;;;;;18.26;46.55;102571.16;5014039;28;20030;-63
2022/02/08 03:56:21;;;;;;;10.80;2.40;;;;;;;18.25;46.59;102572.97;5012849;28;20469;-63
2022/02/08 03:58:46;;;;;;;10.55;2.38;;;;;;;18.24;46.42;102565.97;5013992;28;20291;-63
2022/02/08 04:01:53;;;;;;;8.98;2.60;;;;;;;18.23;46.35;102571.31;5013481;28;20067;-63
2022/02/08 04:06:37;;;;;;;10.57;2.30;;;;;;;18.24;46.71;102578.31;5013958;28;20065;-63
2022/02/08 04:09:07;;;;;;;9.02;2.38;;;;;;;18.22;46.55;102570.50;5013681;28;20267;-63
2022/02/08 04:11:37;;;;;;;12.40;2.85;;;;;;;18.22;46.63;102578.41;5012932;28;20057;-63
2022/02/08 04:14:13;;;;;;;10.18;2.47;;;;;;;18.22;47.07;102573.13;5013281;28;20040;-63
2022/02/08 04:16:41;;;;;;;12.02;2.67;;;;;;;18.22;46.85;102565.22;5012687;28;20026;-63
2022/02/08 04:33:07;;;;;;;8.32;2.40;;;;;;;18.27;46.75;102555.25;5016552;28;20088;-63
2022/02/08 04:38:36;;;;;;;9.15;2.20;;;;;;;18.26;46.79;102566.75;5011956;28;20034;-64
2022/02/08 04:41:07;;;;;;;8.98;2.50;;;;;;;18.26;47.06;102565.88;5013251;28;20479;-63
2022/02/08 04:46:06;;;;;;;9.97;2.33;;;;;;;18.24;46.72;102559.84;5011885;28;20073;-64
2022/02/08 04:48:42;;;;;;;10.82;2.40;;;;;;;18.25;46.92;102541.28;5012723;28;20417;-64
2022/02/08 04:51:16;;;;;;;7.90;1.90;;;;;;;18.24;46.78;102552.78;5012896;28;20038;-63
2022/02/08 04:53:50;;;;;;;13.48;2.25;;;;;;;18.23;46.54;102551.09;5012207;28;20030;-63
2022/02/08 04:56:39;;;;;;;11.13;2.17;;;;;;;18.23;46.68;102561.66;5012764;28;20026;-63
2022/02/08 05:42:47;;;;;;;11.85;2.55;;;;;;;18.23;47.28;102547.56;5015329;28;20088;-63
2022/02/08 05:47:44;;;;;;;12.63;2.28;;;;;;;18.23;47.05;102539.66;5016150;28;20065;-64
2022/02/08 05:50:24;;;;;;;11.77;2.33;;;;;;;18.22;47.03;102538.81;5014842;28;20512;-63
2022/02/08 05:55:35;;;;;;;8.85;2.20;;;;;;;18.22;47.63;102530.06;5024133;28;20473;-63
2022/02/08 05:58:00;;;;;;;11.63;2.30;;;;;;;18.20;47.46;102532.78;5016053;28;20046;-63
2022/02/08 06:00:28;;;;;;;12.23;2.75;;;;;;;18.23;47.86;102529.97;5015512;28;20547;-64
2022/02/08 06:02:55;;;;;;;10.32;2.30;;;;;;;18.25;47.50;102528.09;5015205;28;20062;-64
2022/02/08 06:05:22;;;;;;;11.15;2.10;;;;;;;18.26;47.71;102531.56;5015455;28;20385;-64
2022/02/08 06:07:50;;;;;;;10.73;2.03;;;;;;;18.27;47.56;102528.84;5015602;28;20048;-64
2022/02/08 06:10:18;;;;;;;10.60;2.15;;;;;;;18.30;47.75;102536.59;5014784;28;20030;-63
2022/02/08 06:12:45;;;;;;;12.05;2.40;;;;;;;18.32;47.80;102525.97;5015709;28;20125;-64
2022/02/08 06:15:12;;;;;;;15.68;3.08;;;;;;;18.35;47.61;102531.06;5015403;28;20030;-63
2022/02/08 06:17:38;;;;;;;12.95;2.38;;;;;;;18.38;47.83;102527.41;5014570;28;20490;-64
2022/02/08 06:20:06;;;;;;;13.13;2.27;;;;;;;18.39;47.71;102529.97;5015250;28;20038;-64
2022/02/08 06:22:32;;;;;;;9.05;2.25;;;;;;;18.42;47.71;102529.81;5015365;28;20283;-63
2022/02/08 06:24:57;;;;;;;12.68;2.55;;;;;;;18.44;47.80;102541.13;5014857;28;20036;-63
2022/02/08 06:27:28;;;;;;;11.30;2.75;;;;;;;18.45;47.68;102532.28;5015129;28;20037;-63
2022/02/08 06:29:54;;;;;;;10.00;2.10;;;;;;;18.48;47.86;102537.38;5015451;28;20037;-63
2022/02/08 06:32:19;;;;;;;12.45;2.20;;;;;;;18.51;47.51;102544.25;5014170;28;20056;-64
2022/02/08 06:34:44;;;;;;;11.63;2.00;;;;;;;18.53;47.55;102542.38;5015069;28;20068;-64
2022/02/08 06:37:13;;;;;;;10.23;2.00;;;;;;;18.55;47.64;102544.94;5014699;28;20287;-62
2022/02/08 06:39:38;;;;;;;13.93;2.50;;;;;;;18.55;47.44;102551.09;5014362;28;20045;-63
2022/02/08 06:42:05;;;;;;;10.07;2.13;;;;;;;18.58;47.38;102548.28;5015277;28;20485;-63
2022/02/08 06:44:30;;;;;;;13.15;2.33;;;;;;;18.58;47.69;102545.63;5013835;28;20050;-63
2022/02/08 06:46:55;;;;;;;13.63;2.22;;;;;;;18.59;47.76;102542.03;5015099;28;20092;-63
2022/02/08 06:49:21;;;;;;;10.52;2.42;;;;;;;18.60;47.80;102546.38;5014486;28;20018;-63
2022/02/08 06:51:46;;;;;;;13.45;2.47;;;;;;;18.62;47.61;102548.94;5014624;28;20101;-62
2022/02/08 06:54:14;;;;;;;10.30;2.00;;;;;;;18.63;47.88;102548.03;5014820;28;20033;-63
2022/02/08 06:56:39;;;;;;;10.30;2.17;;;;;;;18.64;47.84;102549.69;5015017;28;20033;-62
2022/02/08 06:59:07;;;;;;;10.50;2.22;;;;;;;18.65;47.97;102548.78;5014304;28;20026;-61
2022/02/08 07:01:35;;;;;;;11.15;2.78;;;;;;;18.63;47.57;102550.66;5014926;28;20489;-62
2022/02/08 07:04:04;;;;;;;10.45;3.10;;;;;;;18.68;47.67;102564.44;5014761;28;20112;-63
2022/02/08 07:06:29;;;;;;;11.95;2.45;;;;;;;18.67;48.10;102555.69;5013445;28;20095;-63
2022/02/08 07:08:55;;;;;;;8.77;2.40;;;;;;;18.71;47.79;102566.03;5014860;28;20025;-63
2022/02/08 07:11:21;;;;;;;12.32;2.55;;;;;;;18.71;47.89;102561.63;5014190;28;20022;-62
2022/02/08 07:13:48;;;;;;;11.73;2.45;;;;;;;18.74;48.04;102566.75;5013870;28;20029;-62
2022/02/08 07:16:14;;;;;;;14.43;2.60;;;;;;;18.75;47.91;102565.78;5014190;28;20413;-62
2022/02/08 07:18:40;;;;;;;9.95;2.65;;;;;;;18.76;48.18;102561.38;5014378;28;20049;-64
2022/02/08 07:21:06;;;;;;;13.73;2.70;;;;;;;18.78;48.15;102562.97;5013821;28;20030;-64
2022/02/08 07:23:32;;;;;;;11.32;2.25;;;;;;;18.80;48.05;102563.75;5014376;28;20026;-64
2022/02/08 07:25:57;;;;;;;15.70;3.22;;;;;;;18.84;48.42;102575.03;5014397;28;20045;-62
2022/02/08 07:28:28;;;;;;;12.52;2.60;;;;;;;18.86;48.18;102567.84;5013280;28;20064;-65
2022/02/08 07:31:01;;;;;;;10.77;2.25;;;;;;;18.89;48.27;102580.06;5014355;28;20484;-65
2022/02/08 07:33:27;;;;;;;11.43;2.60;;;;;;;18.91;48.56;102578.16;5014134;28;20038;-66
2022/02/08 07:36:10;;;;;;;11.00;2.17;;;;;;;18.93;48.47;102587.72;5013662;28;20496;-65
2022/02/08 07:38:38;;;;;;;11.10;2.15;;;;;;;18.95;48.25;102585.00;5014156;28;20030;-66
2022/02/08 07:43:29;;;;;;;10.20;2.57;;;;;;;18.98;48.37;102590.09;5013681;28;20425;-65
2022/02/08 07:45:56;;;;;;;9.55;2.38;;;;;;;19.00;48.69;102596.13;5014004;28;20280;-65
2022/02/08 07:48:21;;;;;;;10.85;2.10;;;;;;;19.01;48.60;102593.41;5012621;28;20112;-67
2022/02/08 07:50:50;;;;;;;10.38;1.88;;;;;;;19.03;48.56;102594.16;5013995;28;20073;-66
2022/02/08 07:53:15;;;;;;;13.23;2.80;;;;;;;19.04;48.62;102595.00;5013721;28;20037;-66
2022/02/08 07:55:41;;;;;;;13.05;2.65;;;;;;;19.02;48.71;102589.81;5013086;28;20026;-67
2022/02/08 07:58:07;;;;;;;13.73;2.70;;;;;;;19.05;48.77;102590.59;5013708;28;20504;-67
2022/02/08 08:00:32;;;;;;;12.52;2.80;;;;;;;19.03;49.07;102586.22;5014128;28;20026;-67
2022/02/08 08:02:58;;;;;;;10.20;2.35;;;;;;;19.06;49.16;102585.22;5013305;28;20028;-65
2022/02/08 08:05:23;;;;;;;13.77;3.25;;;;;;;19.06;48.85;102598.44;5013597;28;20030;-66
2022/02/08 08:07:48;;;;;;;9.18;2.38;;;;;;;19.07;48.80;102600.09;5013901;28;20097;-64
2022/02/08 08:10:19;;;;;;;10.45;2.30;;;;;;;19.07;49.01;102596.63;5012634;28;20523;-63
2022/02/08 08:12:53;;;;;;;10.57;2.45;;;;;;;19.08;49.07;102607.09;5013582;28;20030;-64
2022/02/08 08:15:59;;;;;;;;;;;;;;;19.07;48.92;102604.56;5013969;28;20022;-62
2022/02/08 08:18:25;;;;;;;13.48;2.78;;;;;;;19.06;49.32;102603.72;5014068;28;20473;-63
2022/02/08 08:20:51;;;;;;;13.10;2.67;;;;;;;19.06;49.57;102602.84;5013363;28;20042;-65
2022/02/08 08:23:18;;;;;;;16.27;2.60;;;;;;;19.05;49.34;102615.22;5012216;28;20022;-65
2022/02/08 08:25:45;;;;;;;10.15;2.50;;;;;;;19.05;49.33;102612.56;5013366;28;20492;-64
2022/02/08 08:28:10;;;;;;;12.20;2.63;;;;;;;19.06;49.55;102618.69;5013985;28;20466;-66
2022/02/08 08:30:35;;;;;;;14.55;2.80;;;;;;;19.13;50.38;102620.06;5013770;28;20067;-65
2022/02/08 08:33:02;;;;;;;12.73;2.63;;;;;;;19.19;50.26;102611.78;5013514;28;20367;-61
2022/02/08 08:35:27;;;;;;;13.25;2.83;;;;;;;19.17;49.93;102603.94;5012947;28;20283;-62
2022/02/08 08:38:02;;;;;;;14.05;3.13;;;;;;;19.17;49.86;102609.22;5012472;28;20388;-61
2022/02/08 08:48:50;;;;;;;8.10;2.17;;;;;;;18.91;49.15;102620.44;5017944;28;19967;-63
2022/02/08 08:51:34;;;;;;;7.82;2.40;;;;;;;18.85;48.83;102630.41;5012186;28;20038;-63
2022/02/08 08:53:59;;;;;;;11.13;2.13;;;;;;;18.83;49.80;102619.06;5013088;28;20033;-63
2022/02/08 08:56:24;;;;;;;9.30;2.70;;;;;;;18.83;50.08;102618.19;5012562;28;20284;-63
2022/02/08 08:58:50;;;;;;;7.13;2.40;;;;;;;18.83;50.21;102619.06;5011817;28;20034;-63
2022/02/08 09:01:15;;;;;;;8.13;2.10;;;;;;;18.87;49.92;102630.34;5012273;28;20288;-63
2022/02/08 09:03:41;;;;;;;12.25;2.00;;;;;;;18.88;50.28;102632.00;5012894;28;20279;-63
2022/02/08 09:06:07;;;;;;;9.55;2.35;;;;;;;18.89;50.21;102630.25;5011981;28;20030;-62
2022/02/08 09:08:36;;;;;;;9.73;2.67;;;;;;;18.90;50.46;102630.16;5012632;28;20121;-62
2022/02/08 09:13:43;;;;;;;9.20;1.88;;;;;;;18.92;50.44;102640.63;5012033;28;20030;-62
2022/02/08 09:24:07;;;;;;;10.80;2.13;;;;;;;18.92;50.64;102638.84;5012661;28;20283;-63
2022/02/08 09:28:59;;;;;;;8.63;1.90;;;;;;;18.94;50.60;102646.69;5012812;28;20095;-62
2022/02/08 09:31:25;;;;;;;9.48;2.00;;;;;;;18.93;50.43;102643.19;5012172;28;20117;-62
2022/02/08 09:33:51;;;;;;;8.60;2.30;;;;;;;18.94;50.75;102647.53;5011810;28;20110;-62
2022/02/08 09:36:20;;;;;;;11.05;2.30;;;;;;;18.95;50.56;102643.09;5012330;28;20454;-62
2022/02/08 09:38:45;;;;;;;9.98;2.30;;;;;;;18.93;50.63;102640.56;5012582;28;20029;-62
2022/02/08 09:41:11;;;;;;;10.60;2.28;;;;;;;18.94;50.42;102636.13;5011438;28;20076;-62
2022/02/08 09:43:38;;;;;;;9.82;2.03;;;;;;;18.94;50.83;102630.81;5012330;28;20557;-62
2022/02/08 09:46:05;;;;;;;10.57;1.95;;;;;;;18.95;50.50;102632.53;5012284;28;20112;-62
2022/02/08 09:48:53;;;;;;;10.23;2.13;;;;;;;18.95;50.59;102633.38;5011277;28;20444;-63
2022/02/08 09:51:19;;;;;;;9.15;1.85;;;;;;;18.95;50.71;102629.91;5012239;28;20030;-63
2022/02/08 09:53:44;;;;;;;8.95;2.30;;;;;;;18.95;50.36;102625.47;5012444;28;20441;-63
2022/02/08 09:56:12;;;;;;;8.85;1.80;;;;;;;18.96;50.33;102613.97;5011357;28;20113;-63
2022/02/08 09:58:37;;;;;;;7.93;2.10;;;;;;;18.97;50.34;102620.94;5012109;28;20553;-63
2022/02/08 10:01:06;;;;;;;9.55;1.77;;;;;;;18.97;50.46;102618.28;5011493;28;20129;-63
2022/02/08 10:03:31;;;;;;;9.63;2.17;;;;;;;18.97;50.49;102623.56;5011483;28;20022;-63
2022/02/08 10:05:57;;;;;;;8.00;2.00;;;;;;;18.97;50.23;102628.84;5012386;28;20048;-63
2022/02/08 10:08:25;;;;;;;7.15;2.30;;;;;;;18.98;50.47;102635.00;5011106;28;20501;-63
2022/02/08 10:10:50;;;;;;;8.75;2.00;;;;;;;18.97;50.50;102626.22;5013197;28;20034;-63
2022/02/08 10:13:43;;;;;;;8.00;2.03;;;;;;;18.98;50.28;102629.72;5015519;28;20045;-63
2022/02/08 10:19:36;;;;;;;8.05;1.60;;;;;;;19.00;50.34;102625.19;5015905;28;20045;-63
2022/02/08 10:22:04;;;;;;;7.38;1.70;;;;;;;18.99;50.70;102624.34;5015366;28;20053;-63
2022/02/08 10:24:33;;;;;;;7.45;1.88;;;;;;;18.99;50.30;102624.34;5014801;28;20117;-63
2022/02/08 10:27:11;;;;;;;8.95;2.78;;;;;;;19.01;50.47;102630.41;5015718;28;20050;-63
2022/02/08 10:30:13;;;;;;;8.23;1.65;;;;;;;19.01;50.57;102627.75;5014724;28;20049;-63
2022/02/08 10:38:00;;;;;;;11.10;1.75;;;;;;;19.03;50.07;102619.75;5014743;28;20386;-63
2022/02/08 10:40:26;;;;;;;10.27;2.13;;;;;;;19.02;50.23;102615.38;5014856;28;20236;-63
2022/02/08 10:42:53;;;;;;;8.15;1.73;;;;;;;19.03;50.12;102617.09;5015161;28;20052;-63
2022/02/08 10:45:21;;;;;;;7.88;1.65;;;;;;;19.03;50.16;102619.75;5014021;28;20481;-63
2022/02/08 10:47:54;;;;;;;8.48;1.90;;;;;;;19.03;50.45;102623.22;5015280;28;20076;-63
2022/02/08 10:50:20;;;;;;;7.45;1.88;;;;;;;19.03;50.10;102620.59;5014892;28;20097;-62
2022/02/08 10:52:46;;;;;;;9.75;1.80;;;;;;;19.03;50.51;102623.22;5014371;28;20565;-62
2022/02/08 10:55:28;;;;;;;8.65;1.70;;;;;;;19.03;50.36;102620.59;5014689;28;20021;-61
2022/02/08 10:58:02;;;;;;;8.20;1.85;;;;;;;19.05;50.34;102628.41;5014460;28;20084;-61
2022/02/08 11:00:40;;;;;;;6.18;1.60;;;;;;;19.05;49.46;102612.56;5014586;28;20060;-62
2022/02/08 11:03:12;;;;;;;7.85;1.58;;;;;;;19.04;50.31;102610.84;5014994;28;20037;-65
2022/02/08 11:05:48;;;;;;;9.35;1.83;;;;;;;19.04;49.89;102613.50;5014012;28;20056;-64
2022/02/08 11:08:37;;;;;;;6.85;1.73;;;;;;;19.03;48.48;102612.66;5014762;28;20026;-64
2022/02/08 11:14:14;;;;;;;9.00;1.52;;;;;;;18.96;49.71;102616.59;5013974;28;20081;-68
2022/02/08 11:17:44;;;;;;;9.27;1.48;;;;;;;18.96;50.01;102605.16;5014656;28;20048;-62
2022/02/08 11:22:47;;;;;;;8.05;1.48;;;;;;;18.96;50.13;102602.53;5013120;28;20042;-65
2022/02/08 11:27:50;;;;;;;9.55;1.58;;;;;;;18.98;50.14;102605.94;5013898;28;20121;-65
2022/02/08 11:30:42;;;;;;;7.72;1.60;;;;;;;18.99;50.04;102597.94;5014005;28;20371;-64
2022/02/08 11:39:43;;;;;;;6.60;1.25;;;;;;;19.00;49.79;102604.91;5014609;28;20140;-65
2022/02/08 11:50:44;;;;;;;9.68;1.90;;;;;;;19.03;50.83;102602.09;5013949;28;20466;-65
2022/02/08 11:53:34;;;;;;;7.38;1.58;;;;;;;19.03;50.26;102590.69;5013535;28;20525;-65
2022/02/08 11:56:26;;;;;;;7.90;1.83;;;;;;;19.04;50.72;102595.00;5013424;28;20497;-65
2022/02/08 12:02:03;;;;;;;7.97;1.60;;;;;;;19.04;50.42;102592.34;5012987;28;20058;-65
2022/02/08 12:58:54;;;;;;;8.30;1.50;;;;;;;19.09;49.84;102585.03;5011909;28;20390;-65
2022/02/08 13:18:39;;;;;;;9.32;1.48;;;;;;;19.09;50.12;102586.81;5012816;28;20474;-66
2022/02/08 14:06:58;;;;;;;9.65;1.88;;;;;;;19.28;49.85;102619.19;5017477;28;20057;-65
2022/02/08 14:09:37;;;;;;;10.18;2.20;;;;;;;19.26;49.89;102621.03;5014903;28;20038;-67
2022/02/08 14:14:48;;;;;;;9.27;1.73;;;;;;;19.21;49.98;102615.19;5014723;28;20382;-66
2022/02/08 14:20:27;;;;;;;9.73;1.65;;;;;;;19.21;50.33;102625.75;5016119;28;20042;-67
2022/02/08 14:25:45;;;;;;;9.60;1.75;;;;;;;19.17;50.48;102618.97;5015901;28;20041;-66
2022/02/08 14:33:48;;;;;;;6.72;1.42;;;;;;;19.15;50.56;102615.53;5015262;28;20426;-67
2022/02/08 14:58:06;;;;;;;10.10;2.10;;;;;;;19.09;50.89;102614.09;5024201;28;19924;-67
2022/02/08 15:06:06;;;;;;;8.50;1.52;;;;;;;19.07;50.60;102613.31;5024274;28;20040;-66
2022/02/08 15:08:36;;;;;;;7.43;1.50;;;;;;;19.07;50.76;102613.31;5018747;28;20042;-65
2022/02/08 15:11:07;;;;;;;7.90;2.00;;;;;;;19.08;51.04;102614.19;5019960;28;20029;-66
2022/02/08 15:13:33;;;;;;;9.45;2.25;;;;;;;19.06;50.88;102603.72;5021481;28;20034;-66
2022/02/08 15:16:06;;;;;;;8.10;1.75;;;;;;;19.07;50.68;102609.84;5021008;28;20034;-66
2022/02/08 15:18:33;;;;;;;8.70;1.98;;;;;;;19.08;50.89;102614.19;5019753;28;20474;-65
2022/02/08 15:21:03;;;;;;;9.77;2.17;;;;;;;19.08;50.62;102615.03;5020122;28;20057;-65
2022/02/08 15:23:28;;;;;;;6.55;1.58;;;;;;;19.07;50.83;102615.97;5020873;28;20029;-66
2022/02/08 15:25:59;;;;;;;9.10;2.00;;;;;;;19.05;50.79;102615.22;5015057;28;20026;-65
2022/02/08 15:28:26;;;;;;;7.03;1.98;;;;;;;19.06;51.02;102618.69;5014816;28;20041;-65
2022/02/08 15:30:54;;;;;;;8.95;2.55;;;;;;;19.06;51.04;102619.56;5017469;28;20073;-65
2022/02/08 15:33:23;;;;;;;9.32;2.30;;;;;;;19.05;50.57;102615.22;5015118;28;20081;-66
2022/02/08 15:35:49;;;;;;;7.55;2.08;;;;;;;19.05;51.11;102623.13;5015473;28;20040;-66
2022/02/08 15:38:15;;;;;;;10.95;2.13;;;;;;;19.06;50.96;102626.63;5013903;28;20478;-66
2022/02/08 15:40:41;;;;;;;10.13;2.22;;;;;;;19.06;51.27;102629.25;5013539;28;20056;-66
2022/02/08 15:43:10;;;;;;;8.25;2.20;;;;;;;19.06;51.41;102618.69;5014556;28;20459;-67
2022/02/08 15:45:41;;;;;;;11.32;2.63;;;;;;;19.05;50.96;102628.41;5014244;28;20082;-66
2022/02/08 15:48:10;;;;;;;8.93;2.13;;;;;;;19.06;50.88;102621.34;5014497;28;20046;-67
2022/02/08 15:51:23;;;;;;;9.82;2.03;;;;;;;19.05;51.19;102620.50;5014479;28;20037;-67
2022/02/08 15:53:34;;;;;;;9.00;1.98;;;;;;;19.06;50.86;102614.28;5014847;28;20081;-69
2022/02/08 16:00:08;;;;;;;8.98;2.47;;;;;;;19.07;51.19;102618.59;5013714;28;20117;-68
2022/02/08 16:09:43;;;;;;;9.38;2.33;;;;;;;19.05;50.35;102606.44;5014700;28;20034;-68
2022/02/08 16:20:35;;;;;;;7.72;2.58;;;;;;;19.05;51.45;102604.63;5013096;28;20048;-67
2022/02/08 16:31:07;;;;;;;10.45;2.10;;;;;;;19.06;51.18;102611.63;5012562;28;20053;-67
2022/02/08 16:57:53;;;;;;;10.15;1.90;;;;;;;19.09;51.88;102613.25;5012014;28;20061;-67
2022/02/08 17:00:22;;;;;;;7.53;2.00;;;;;;;19.09;51.84;102621.16;5012483;28;20034;-66
2022/02/08 17:02:54;;;;;;;10.65;2.13;;;;;;;19.06;51.56;102618.69;5013023;28;20041;-65
2022/02/08 17:05:22;;;;;;;9.30;2.17;;;;;;;19.08;51.50;102630.91;5011511;28;20600;-65
2022/02/08 17:07:47;;;;;;;7.82;1.73;;;;;;;19.09;51.87;102643.19;5012750;28;20105;-66
2022/02/08 17:10:28;;;;;;;10.33;1.90;;;;;;;19.10;51.96;102650.16;5012524;28;20422;-66
2022/02/08 17:13:02;;;;;;;11.75;2.25;;;;;;;19.10;51.78;102650.16;5012918;28;20259;-66
2022/02/08 17:34:55;;;;;;;6.93;1.50;;;;;;;19.21;51.78;102673.31;5012038;28;20037;-69
2022/02/08 17:45:41;;;;;;;8.18;2.03;;;;;;;19.45;51.84;102675.50;5012325;28;20092;-65
2022/02/08 17:48:00;;;;;;;10.43;1.95;;;;;;;19.53;51.40;102671.44;5012386;28;20046;-65
2022/02/08 17:50:26;;;;;;;9.40;2.27;;;;;;;19.63;50.98;102678.84;5012073;28;20030;-65
2022/02/08 17:52:52;;;;;;;7.68;1.58;;;;;;;19.71;50.89;102676.59;5011760;28;20341;-65
2022/02/08 17:55:19;;;;;;;8.55;1.90;;;;;;;19.76;51.01;102674.59;5012090;28;20072;-63
2022/02/08 17:57:44;;;;;;;6.32;1.50;;;;;;;19.81;50.54;102683.09;5012464;28;20030;-63
2022/02/08 18:00:12;;;;;;;10.43;1.60;;;;;;;19.85;50.76;102681.09;5011053;28;20041;-64
2022/02/08 18:02:40;;;;;;;11.57;1.70;;;;;;;19.88;49.94;102680.94;5012190;28;20037;-66
2022/02/08 18:05:09;;;;;;;8.48;1.70;;;;;;;19.93;50.58;102687.66;5014546;28;20026;-65
2022/02/08 18:07:36;;;;;;;8.98;1.60;;;;;;;20.00;50.61;102688.13;5013566;28;20057;-67
2022/02/08 18:10:03;;;;;;;6.78;1.75;;;;;;;20.07;50.52;102688.63;5016213;28;20466;-67